createdAt,value
2018-09-25T00:01:49.239Z,21.72
2018-09-25T00:04:15.634Z,21.73
2018-09-25T00:06:41.948Z,21.74
2018-09-25T00:09:08.329Z,21.73
2018-09-25T00:11:34.660Z,21.72
2018-09-25T00:14:01.041Z,21.71
2018-09-25T00:16:27.408Z,21.70
2018-09-25T00:18:53.843Z,21.67
2018-09-25T00:21:20.280Z,21.67
2018-09-25T00:23:46.609Z,21.65
2018-09-25T00:26:12.937Z,21.63
2018-09-25T00:28:39.261Z,21.66
2018-09-25T00:31:05.645Z,21.65
2018-09-25T00:33:32.036Z,21.65
2018-09-25T00:35:58.361Z,21.62
2018-09-25T00:38:24.792Z,21.60
2018-09-25T00:40:51.127Z,21.60
2018-09-25T00:43:17.496Z,21.60
2018-09-25T00:45:43.890Z,21.59
2018-09-25T00:48:10.242Z,21.59
2018-09-25T00:50:36.588Z,21.57
2018-09-25T00:53:02.957Z,21.54
2018-09-25T00:55:29.263Z,21.51
2018-09-25T00:57:55.664Z,21.49
2018-09-25T01:00:21.991Z,21.50
2018-09-25T01:02:48.326Z,21.53
2018-09-25T01:05:14.694Z,21.52
2018-09-25T01:07:41.065Z,21.51
2018-09-25T01:10:07.469Z,21.47
2018-09-25T01:12:33.905Z,21.46
2018-09-25T01:15:00.240Z,21.44
2018-09-25T01:17:26.590Z,21.43
2018-09-25T01:19:52.921Z,21.47
2018-09-25T01:22:19.287Z,21.47
2018-09-25T01:24:45.753Z,21.45
2018-09-25T01:27:12.091Z,21.40
2018-09-25T01:29:38.458Z,21.39
2018-09-25T01:32:04.858Z,21.36
2018-09-25T01:34:31.243Z,21.37
2018-09-25T01:36:57.586Z,21.40
2018-09-25T01:39:23.912Z,21.39
2018-09-25T01:41:50.335Z,21.38
2018-09-25T01:44:16.847Z,21.36
2018-09-25T01:46:43.234Z,21.32
2018-09-25T01:49:09.571Z,21.30
2018-09-25T01:51:35.917Z,21.32
2018-09-25T01:54:02.248Z,21.25
2018-09-25T01:56:28.612Z,21.30
2018-09-25T01:58:54.964Z,21.31
2018-09-25T02:01:21.304Z,21.31
2018-09-25T02:03:47.660Z,21.28
2018-09-25T02:06:13.991Z,21.25
2018-09-25T02:08:40.355Z,21.23
2018-09-25T02:11:06.704Z,21.18
2018-09-25T02:13:34.039Z,21.20
2018-09-25T02:16:00.440Z,21.22
2018-09-25T02:18:26.812Z,21.20
2018-09-25T02:20:53.151Z,21.20
2018-09-25T02:23:19.497Z,21.19
2018-09-25T02:25:46.627Z,21.15
2018-09-25T02:28:12.956Z,21.13
2018-09-25T02:30:39.333Z,21.14
2018-09-25T02:33:05.712Z,21.14
2018-09-25T02:35:32.065Z,21.15
2018-09-25T02:37:58.450Z,21.12
2018-09-25T02:40:24.827Z,21.11
2018-09-25T02:42:51.163Z,21.04
2018-09-25T02:45:17.484Z,21.04
2018-09-25T02:47:43.835Z,21.06
2018-09-25T02:50:10.244Z,21.08
2018-09-25T02:52:36.678Z,21.04
2018-09-25T02:55:03.109Z,21.03
2018-09-25T02:57:29.448Z,21.04
2018-09-25T02:59:55.784Z,21.02
2018-09-25T03:02:22.168Z,20.97
2018-09-25T03:04:48.543Z,20.94
2018-09-25T03:07:14.870Z,20.93
2018-09-25T03:09:41.229Z,20.97
2018-09-25T03:12:07.563Z,20.96
2018-09-25T03:14:33.900Z,20.99
2018-09-25T03:17:00.389Z,21.02
2018-09-25T03:19:26.828Z,21.03
2018-09-25T03:21:53.086Z,21.05
2018-09-25T03:24:19.422Z,21.08
2018-09-25T03:26:45.760Z,21.12
2018-09-25T03:29:12.114Z,21.13
2018-09-25T03:31:38.526Z,21.13
2018-09-25T03:34:04.997Z,21.14
2018-09-25T03:36:31.430Z,21.15
2018-09-25T03:38:57.796Z,21.16
2018-09-25T03:41:24.224Z,21.16
2018-09-25T03:43:50.555Z,21.17
2018-09-25T03:46:16.883Z,21.17
2018-09-25T03:48:43.256Z,21.18
2018-09-25T03:51:09.611Z,21.19
2018-09-25T03:53:36.117Z,21.22
2018-09-25T03:56:02.478Z,21.27
2018-09-25T03:58:28.917Z,21.21
2018-09-25T04:00:55.315Z,21.28
2018-09-25T04:03:21.650Z,21.20
2018-09-25T04:05:48.105Z,21.21
2018-09-25T04:08:14.537Z,21.19
2018-09-25T04:10:40.944Z,21.19
2018-09-25T04:13:07.374Z,21.19
2018-09-25T04:15:33.782Z,21.18
2018-09-25T04:18:00.162Z,21.18
2018-09-25T04:20:26.574Z,21.16
2018-09-25T04:22:52.905Z,21.16
2018-09-25T04:25:19.307Z,21.18
2018-09-25T04:27:45.668Z,21.20
2018-09-25T04:30:12.200Z,21.22
2018-09-25T04:32:38.579Z,21.24
2018-09-25T04:35:05.021Z,21.27
2018-09-25T04:37:31.384Z,21.30
2018-09-25T04:39:57.775Z,21.37
2018-09-25T04:42:24.155Z,21.42
2018-09-25T04:44:50.517Z,21.48
2018-09-25T04:47:16.981Z,21.52
2018-09-25T04:49:43.308Z,21.55
2018-09-25T04:52:09.648Z,21.57
2018-09-25T04:54:36.043Z,21.61
2018-09-25T04:57:02.427Z,21.67
2018-09-25T04:59:28.806Z,21.71
2018-09-25T05:01:55.201Z,21.76
2018-09-25T05:04:21.536Z,21.78
2018-09-25T05:06:47.928Z,21.84
2018-09-25T05:09:14.304Z,21.93
2018-09-25T05:11:40.681Z,22.05
2018-09-25T05:14:07.068Z,22.10
2018-09-25T05:16:33.440Z,22.09
2018-09-25T05:18:59.985Z,22.13
2018-09-25T05:21:26.391Z,22.20
2018-09-25T05:23:52.785Z,22.23
2018-09-25T05:26:19.165Z,22.29
2018-09-25T05:28:45.592Z,22.32
2018-09-25T05:31:11.931Z,22.34
2018-09-25T05:33:38.405Z,22.36
2018-09-25T05:36:04.762Z,22.43
2018-09-25T05:38:31.118Z,22.49
2018-09-25T05:40:57.555Z,22.49
2018-09-25T05:43:23.941Z,22.52
2018-09-25T05:45:50.311Z,22.55
2018-09-25T05:48:16.710Z,22.58
2018-09-25T05:50:43.097Z,22.70
2018-09-25T05:53:09.448Z,22.70
2018-09-25T05:55:35.932Z,22.72
2018-09-25T05:58:02.350Z,22.74
2018-09-25T06:00:28.803Z,22.79
2018-09-25T06:02:55.233Z,22.90
2018-09-25T06:05:21.553Z,22.94
2018-09-25T06:07:48.003Z,22.91
2018-09-25T06:10:14.383Z,22.92
2018-09-25T06:12:40.788Z,22.99
2018-09-25T06:15:07.159Z,23.05
2018-09-25T06:17:33.529Z,23.09
2018-09-25T06:19:59.884Z,23.08
2018-09-25T06:22:26.292Z,23.12
2018-09-25T06:24:52.643Z,23.17
2018-09-25T06:27:19.161Z,23.25
2018-09-25T06:29:45.555Z,23.27
2018-09-25T06:32:14.276Z,23.30
2018-09-25T06:34:40.758Z,23.31
2018-09-25T06:37:07.089Z,23.33
2018-09-25T06:39:33.431Z,23.41
2018-09-25T06:41:59.774Z,23.40
2018-09-25T06:44:26.363Z,23.46
2018-09-25T06:46:52.722Z,23.43
2018-09-25T06:49:19.140Z,23.61
2018-09-25T06:51:45.576Z,23.61
2018-09-25T06:54:11.980Z,23.65
2018-09-25T06:56:38.406Z,23.71
2018-09-25T06:59:04.840Z,23.75
2018-09-25T07:01:31.280Z,23.72
2018-09-25T07:03:57.718Z,23.57
2018-09-25T07:06:24.137Z,23.47
2018-09-25T07:08:51.305Z,23.43
2018-09-25T07:11:17.744Z,23.29
2018-09-25T07:13:44.159Z,23.33
2018-09-25T07:16:10.892Z,23.18
2018-09-25T07:18:37.268Z,23.22
2018-09-25T07:21:03.715Z,23.27
2018-09-25T07:23:30.184Z,23.26
2018-09-25T07:25:56.703Z,23.11
2018-09-25T07:28:23.116Z,23.15
2018-09-25T07:30:49.476Z,23.13
2018-09-25T07:33:15.846Z,23.24
2018-09-25T07:35:42.193Z,23.30
2018-09-25T07:38:08.793Z,23.29
2018-09-25T07:40:35.146Z,23.28
2018-09-25T07:43:01.557Z,23.27
2018-09-25T07:45:27.899Z,23.31
2018-09-25T07:47:54.259Z,23.25
2018-09-25T07:50:20.689Z,23.32
2018-09-25T07:52:47.196Z,23.39
2018-09-25T07:55:13.667Z,23.32
2018-09-25T07:57:40.059Z,23.33
2018-09-25T08:00:06.686Z,23.38
2018-09-25T08:02:33.112Z,23.40
2018-09-25T08:04:59.570Z,23.34
2018-09-25T08:07:25.970Z,23.36
2018-09-25T08:09:52.411Z,23.40
2018-09-25T08:12:18.829Z,23.40
2018-09-25T08:14:45.201Z,23.42
2018-09-25T08:17:11.686Z,23.41
2018-09-25T08:19:38.154Z,23.42
2018-09-25T08:22:04.551Z,23.45
2018-09-25T08:24:31.008Z,23.51
2018-09-25T08:26:57.409Z,23.48
2018-09-25T08:29:23.795Z,23.51
2018-09-25T08:31:50.302Z,23.48
2018-09-25T08:34:16.697Z,23.48
2018-09-25T08:36:43.107Z,23.45
2018-09-25T08:39:09.562Z,23.49
2018-09-25T08:41:35.919Z,23.45
2018-09-25T08:44:02.341Z,23.48
2018-09-25T08:46:28.769Z,23.50
2018-09-25T08:48:55.221Z,23.60
2018-09-25T08:51:21.648Z,23.57
2018-09-25T08:53:48.052Z,23.57
2018-09-25T08:56:14.465Z,23.60
2018-09-25T08:58:40.840Z,23.54
2018-09-25T09:01:07.258Z,23.63
2018-09-25T09:03:33.679Z,23.65
2018-09-25T09:06:00.144Z,23.72
2018-09-25T09:08:26.599Z,23.66
2018-09-25T09:10:53.196Z,23.71
2018-09-25T09:13:19.649Z,23.72
2018-09-25T09:15:46.109Z,23.70
2018-09-25T09:18:12.525Z,23.69
2018-09-25T09:20:38.923Z,23.66
2018-09-25T09:23:05.386Z,23.68
2018-09-25T09:25:31.952Z,23.69
2018-09-25T09:27:58.455Z,23.69
2018-09-25T09:30:24.912Z,23.83
2018-09-25T09:32:51.321Z,23.78
2018-09-25T09:35:17.705Z,23.77
2018-09-25T09:37:44.140Z,23.79
2018-09-25T09:40:10.514Z,23.75
2018-09-25T09:42:36.979Z,23.89
2018-09-25T09:45:03.379Z,23.93
2018-09-25T09:47:29.935Z,23.95
2018-09-25T09:49:56.396Z,23.98
2018-09-25T09:52:22.969Z,23.98
2018-09-25T09:54:49.338Z,24.03
2018-09-25T09:57:15.702Z,24.02
2018-09-25T09:59:42.113Z,24.04
2018-09-25T10:02:08.563Z,24.12
2018-09-25T10:04:35.031Z,24.08
2018-09-25T10:07:01.437Z,24.12
2018-09-25T10:09:27.866Z,24.13
2018-09-25T10:11:54.247Z,24.17
2018-09-25T10:14:20.700Z,24.25
2018-09-25T10:16:47.161Z,24.24
2018-09-25T10:19:13.593Z,24.25
2018-09-25T10:21:40.109Z,24.23
2018-09-25T10:24:06.512Z,24.28
2018-09-25T10:26:32.917Z,24.30
2018-09-25T10:28:59.607Z,24.32
2018-09-25T10:31:25.997Z,24.28
2018-09-25T10:33:52.449Z,24.30
2018-09-25T10:36:18.904Z,24.41
2018-09-25T10:38:45.342Z,24.38
2018-09-25T10:41:11.867Z,24.39
2018-09-25T10:43:38.308Z,24.42
2018-09-25T10:46:04.744Z,24.39
2018-09-25T10:48:31.172Z,24.42
2018-09-25T10:50:57.589Z,24.51
2018-09-25T10:53:24.029Z,24.46
2018-09-25T10:55:50.518Z,24.51
2018-09-25T10:58:17.341Z,24.55
2018-09-25T11:00:43.902Z,24.59
2018-09-25T11:03:10.608Z,24.56
2018-09-25T11:05:36.937Z,24.52
2018-09-25T11:08:03.367Z,24.57
2018-09-25T11:10:29.879Z,24.53
2018-09-25T11:12:56.413Z,24.50
2018-09-25T11:15:22.764Z,24.52
2018-09-25T11:17:49.242Z,24.54
2018-09-25T11:20:15.554Z,24.57
2018-09-25T11:22:41.963Z,24.64
2018-09-25T11:25:08.336Z,24.72
2018-09-25T11:27:34.703Z,24.73
2018-09-25T11:30:01.097Z,24.70
2018-09-25T11:32:27.481Z,24.70
2018-09-25T11:34:54.051Z,24.72
2018-09-25T11:37:20.432Z,24.68
2018-09-25T11:39:46.871Z,24.74
2018-09-25T11:42:13.213Z,24.73
2018-09-25T11:44:39.599Z,24.84
2018-09-25T11:47:06.036Z,24.79
2018-09-25T11:49:32.356Z,24.77
2018-09-25T11:51:58.841Z,24.80
2018-09-25T11:54:25.228Z,24.86
2018-09-25T11:56:51.630Z,24.89
2018-09-25T11:59:18.020Z,24.86
2018-09-25T12:01:44.378Z,24.87
2018-09-25T12:04:10.752Z,24.93
2018-09-25T12:06:37.243Z,24.96
2018-09-25T12:09:05.442Z,24.98
2018-09-25T12:11:31.818Z,24.97
2018-09-25T12:13:58.187Z,24.95
2018-09-25T12:16:24.535Z,24.99
2018-09-25T12:18:51.021Z,25.00
2018-09-25T12:21:17.450Z,24.97
2018-09-25T12:23:43.918Z,24.98
2018-09-25T12:26:10.381Z,24.96
2018-09-25T12:28:36.823Z,25.03
2018-09-25T12:31:03.207Z,25.04
2018-09-25T12:33:29.619Z,25.04
2018-09-25T12:35:55.979Z,24.93
2018-09-25T12:38:22.468Z,24.96
2018-09-25T12:40:48.971Z,24.78
2018-09-25T12:43:15.349Z,24.67
2018-09-25T12:45:41.704Z,24.63
2018-09-25T12:48:08.107Z,24.61
2018-09-25T12:50:34.508Z,24.63
2018-09-25T12:53:00.910Z,24.52
2018-09-25T12:55:27.363Z,24.51
2018-09-25T12:57:53.744Z,24.52
2018-09-25T13:00:20.176Z,24.49
2018-09-25T13:02:46.610Z,24.45
2018-09-25T13:05:13.142Z,24.43
2018-09-25T13:07:39.575Z,24.44
2018-09-25T13:10:06.058Z,24.57
2018-09-25T13:12:32.440Z,24.55
2018-09-25T13:14:58.845Z,24.45
2018-09-25T13:17:25.310Z,24.46
2018-09-25T13:19:51.832Z,24.39
2018-09-25T13:22:18.275Z,24.49
2018-09-25T13:24:45.275Z,24.46
2018-09-25T13:27:11.806Z,24.49
2018-09-25T13:29:38.528Z,24.43
2018-09-25T13:32:05.061Z,24.48
2018-09-25T13:34:31.420Z,24.47
2018-09-25T13:36:57.815Z,24.51
2018-09-25T13:39:24.188Z,24.43
2018-09-25T13:41:50.599Z,24.46
2018-09-25T13:44:17.023Z,24.39
2018-09-25T13:46:43.376Z,24.40
2018-09-25T13:49:09.835Z,24.47
2018-09-25T13:51:36.219Z,24.41
2018-09-25T13:54:02.922Z,24.41
2018-09-25T13:56:30.353Z,24.40
2018-09-25T13:58:56.819Z,24.39
2018-09-25T14:01:23.208Z,24.38
2018-09-25T14:03:49.607Z,24.36
2018-09-25T14:06:16.198Z,24.37
2018-09-25T14:08:42.558Z,24.35
2018-09-25T14:11:08.878Z,24.36
2018-09-25T14:13:35.249Z,24.37
2018-09-25T14:16:01.612Z,24.35
2018-09-25T14:18:28.023Z,24.34
2018-09-25T14:20:54.376Z,24.33
2018-09-25T14:23:20.734Z,24.29
2018-09-25T14:25:47.174Z,24.27
2018-09-25T14:28:13.600Z,24.22
2018-09-25T14:30:40.035Z,24.27
2018-09-25T14:33:06.503Z,24.25
2018-09-25T14:35:32.903Z,24.22
2018-09-25T14:37:59.267Z,24.15
2018-09-25T14:40:25.596Z,24.20
2018-09-25T14:42:52.065Z,24.14
2018-09-25T14:45:18.484Z,24.17
2018-09-25T14:47:44.855Z,24.13
2018-09-25T14:50:11.205Z,24.16
2018-09-25T14:52:37.551Z,24.19
2018-09-25T14:55:03.922Z,24.13
2018-09-25T14:57:30.318Z,24.14
2018-09-25T14:59:56.784Z,24.13
2018-09-25T15:02:23.116Z,24.06
2018-09-25T15:04:49.472Z,24.07
2018-09-25T15:07:15.911Z,24.08
2018-09-25T15:09:42.270Z,24.10
2018-09-25T15:12:08.608Z,23.97
2018-09-25T15:14:35.008Z,23.97
2018-09-25T15:17:01.360Z,23.98
2018-09-25T15:19:27.710Z,23.97
2018-09-25T15:21:54.323Z,23.97
2018-09-25T15:24:20.470Z,23.92
2018-09-25T15:26:46.920Z,23.97
2018-09-25T15:29:13.398Z,23.81
2018-09-25T15:31:39.838Z,23.79
2018-09-25T15:34:06.180Z,23.75
2018-09-25T15:36:32.544Z,23.74
2018-09-25T15:38:58.951Z,23.71
2018-09-25T15:41:25.339Z,23.67
2018-09-25T15:43:51.673Z,23.67
2018-09-25T15:46:17.999Z,23.64
2018-09-25T15:48:44.452Z,23.58
2018-09-25T15:51:10.796Z,23.58
2018-09-25T15:53:37.147Z,23.57
2018-09-25T15:56:03.501Z,23.53
2018-09-25T15:58:29.864Z,23.51
2018-09-25T16:00:56.221Z,23.50
2018-09-25T16:03:22.652Z,23.47
2018-09-25T16:05:49.005Z,23.40
2018-09-25T16:08:15.340Z,23.40
2018-09-25T16:10:41.804Z,23.40
2018-09-25T16:13:08.142Z,23.37
2018-09-25T16:15:34.549Z,23.35
2018-09-25T16:18:00.928Z,23.26
2018-09-25T16:20:27.440Z,23.31
2018-09-25T16:22:53.785Z,23.31
2018-09-25T16:25:20.226Z,23.29
2018-09-25T16:27:46.596Z,23.27
2018-09-25T16:30:12.991Z,23.22
2018-09-25T16:32:39.358Z,23.25
2018-09-25T16:35:05.744Z,23.20
2018-09-25T16:37:32.128Z,23.20
2018-09-25T16:39:58.813Z,23.13
2018-09-25T16:42:25.161Z,23.13
2018-09-25T16:44:51.549Z,23.12
2018-09-25T16:47:17.882Z,23.10
2018-09-25T16:49:44.331Z,23.08
2018-09-25T16:52:10.680Z,23.07
2018-09-25T16:54:37.063Z,23.05
2018-09-25T16:57:03.476Z,23.05
2018-09-25T16:59:29.900Z,22.97
2018-09-25T17:01:56.251Z,22.97
2018-09-25T17:04:22.611Z,22.94
2018-09-25T17:06:48.996Z,22.97
2018-09-25T17:09:15.381Z,22.95
2018-09-25T17:11:41.828Z,23.04
2018-09-25T17:14:08.261Z,23.07
2018-09-25T17:16:34.691Z,23.17
2018-09-25T17:19:01.082Z,23.11
2018-09-25T17:21:27.459Z,23.12
2018-09-25T17:23:53.850Z,23.12
2018-09-25T17:26:20.328Z,23.13
2018-09-25T17:28:46.751Z,23.11
2018-09-25T17:31:13.082Z,23.09
2018-09-25T17:33:39.460Z,23.06
2018-09-25T17:36:05.871Z,23.02
2018-09-25T17:38:32.236Z,22.97
2018-09-25T17:40:58.616Z,22.97
2018-09-25T17:43:25.252Z,22.94
2018-09-25T17:45:51.622Z,22.94
2018-09-25T17:48:18.011Z,22.91
2018-09-25T17:50:44.518Z,22.90
2018-09-25T17:53:10.908Z,22.91
2018-09-25T17:55:37.318Z,22.93
2018-09-25T17:58:03.705Z,22.90
2018-09-25T18:00:30.042Z,22.91
2018-09-25T18:02:56.408Z,22.84
2018-09-25T18:05:22.772Z,22.88
2018-09-25T18:07:49.243Z,22.85
2018-09-25T18:10:15.597Z,22.80
2018-09-25T18:12:42.752Z,22.83
2018-09-25T18:15:09.140Z,22.83
2018-09-25T18:17:35.480Z,22.79
2018-09-25T18:20:01.845Z,22.69
2018-09-25T18:22:28.176Z,22.75
2018-09-25T18:24:54.543Z,22.74
2018-09-25T18:27:20.940Z,22.67
2018-09-25T18:29:47.318Z,22.65
2018-09-25T18:32:13.714Z,22.67
2018-09-25T18:34:40.180Z,22.63
2018-09-25T18:37:06.681Z,22.58
2018-09-25T18:39:33.071Z,22.59
2018-09-25T18:41:59.433Z,22.54
2018-09-25T18:44:25.867Z,22.52
2018-09-25T18:46:52.299Z,22.56
2018-09-25T18:49:18.837Z,22.52
2018-09-25T18:51:45.220Z,22.48
2018-09-25T18:54:11.640Z,22.50
2018-09-25T18:56:37.998Z,22.41
2018-09-25T18:59:04.376Z,22.42
2018-09-25T19:01:31.511Z,22.39
2018-09-25T19:03:57.890Z,22.41
2018-09-25T19:06:24.276Z,22.38
2018-09-25T19:08:50.752Z,22.37
2018-09-25T19:11:17.112Z,22.42
2018-09-25T19:13:43.500Z,22.35
2018-09-25T19:16:09.895Z,22.28
2018-09-25T19:18:36.278Z,22.31
2018-09-25T19:21:02.698Z,22.28
2018-09-25T19:23:29.221Z,22.25
2018-09-25T19:25:55.600Z,22.24
2018-09-25T19:28:22.028Z,22.25
2018-09-25T19:30:48.328Z,22.19
2018-09-25T19:33:14.669Z,22.23
2018-09-25T19:35:41.032Z,22.15
2018-09-25T19:38:07.432Z,22.22
2018-09-25T19:40:33.827Z,22.14
2018-09-25T19:43:00.189Z,22.10
2018-09-25T19:45:26.557Z,22.04
2018-09-25T19:47:52.916Z,22.09
2018-09-25T19:50:19.332Z,22.06
2018-09-25T19:52:45.670Z,22.06
2018-09-25T19:55:12.047Z,22.01
2018-09-25T19:57:38.512Z,22.07
2018-09-25T20:00:04.978Z,22.00
2018-09-25T20:02:31.489Z,21.99
2018-09-25T20:04:57.945Z,22.02
2018-09-25T20:07:24.297Z,22.01
2018-09-25T20:09:50.629Z,21.98
2018-09-25T20:12:17.003Z,22.02
2018-09-25T20:14:43.408Z,21.99
2018-09-25T20:17:09.891Z,21.95
2018-09-25T20:19:36.345Z,21.91
2018-09-25T20:22:02.666Z,21.89
2018-09-25T20:24:29.178Z,21.81
2018-09-25T20:26:55.516Z,21.86
2018-09-25T20:29:21.866Z,21.83
2018-09-25T20:31:48.221Z,21.78
2018-09-25T20:34:14.596Z,21.77
2018-09-25T20:36:41.015Z,21.74
2018-09-25T20:39:07.378Z,21.70
2018-09-25T20:41:33.772Z,21.65
2018-09-25T20:44:00.178Z,21.66
2018-09-25T20:46:26.571Z,21.63
2018-09-25T20:48:52.970Z,21.60
2018-09-25T20:51:19.429Z,21.58
2018-09-25T20:53:45.787Z,21.58
2018-09-25T20:56:12.234Z,21.57
2018-09-25T20:58:38.651Z,21.54
2018-09-25T21:01:05.026Z,21.52
2018-09-25T21:03:31.389Z,21.51
2018-09-25T21:05:57.726Z,21.49
2018-09-25T21:08:24.113Z,21.47
2018-09-25T21:10:50.504Z,21.43
2018-09-25T21:13:16.843Z,21.43
2018-09-25T21:15:43.292Z,21.42
2018-09-25T21:18:09.663Z,21.39
2018-09-25T21:20:36.222Z,21.39
2018-09-25T21:23:02.575Z,21.36
2018-09-25T21:25:28.955Z,21.35
2018-09-25T21:27:55.298Z,21.31
2018-09-25T21:30:21.734Z,21.31
2018-09-25T21:32:48.090Z,21.31
2018-09-25T21:35:14.497Z,21.28
2018-09-25T21:37:40.916Z,21.26
2018-09-25T21:40:07.406Z,21.26
2018-09-25T21:42:34.446Z,21.25
2018-09-25T21:45:00.928Z,21.23
2018-09-25T21:47:27.278Z,21.21
2018-09-25T21:49:53.661Z,21.19
2018-09-25T21:52:20.036Z,21.18
2018-09-25T21:54:46.499Z,21.15
2018-09-25T21:57:13.023Z,21.15
2018-09-25T21:59:39.292Z,21.12
2018-09-25T22:02:05.782Z,21.11
2018-09-25T22:04:32.312Z,21.10
2018-09-25T22:06:58.752Z,21.08
2018-09-25T22:09:25.285Z,21.08
2018-09-25T22:11:51.815Z,21.06
2018-09-25T22:14:18.174Z,21.05
2018-09-25T22:16:44.579Z,21.06
2018-09-25T22:19:10.959Z,21.01
2018-09-25T22:21:37.470Z,21.01
2018-09-25T22:24:03.835Z,21.00
2018-09-25T22:26:30.225Z,20.99
2018-09-25T22:28:56.680Z,20.97
2018-09-25T22:31:23.048Z,20.96
2018-09-25T22:33:49.462Z,20.92
2018-09-25T22:36:15.834Z,20.90
2018-09-25T22:38:42.198Z,20.90
2018-09-25T22:41:08.625Z,20.87
2018-09-25T22:43:35.052Z,20.88
2018-09-25T22:46:01.425Z,20.87
2018-09-25T22:48:27.815Z,20.85
2018-09-25T22:50:54.241Z,20.83
2018-09-25T22:53:20.622Z,20.83
2018-09-25T22:55:47.034Z,20.81
2018-09-25T22:58:13.409Z,20.78
2018-09-25T23:00:39.884Z,20.77
2018-09-25T23:03:06.243Z,20.77
2018-09-25T23:05:32.602Z,20.78
2018-09-25T23:07:58.987Z,20.73
2018-09-25T23:10:25.396Z,20.74
2018-09-25T23:12:51.755Z,20.73
2018-09-25T23:15:18.123Z,20.69
2018-09-25T23:17:44.537Z,20.70
2018-09-25T23:20:10.890Z,20.69
2018-09-25T23:22:37.295Z,20.67
2018-09-25T23:25:03.677Z,20.67
2018-09-25T23:27:30.080Z,20.64
2018-09-25T23:29:56.505Z,20.62
2018-09-25T23:32:22.866Z,20.61
2018-09-25T23:34:49.257Z,20.60
2018-09-25T23:37:15.631Z,20.58
2018-09-25T23:39:42.061Z,20.57
2018-09-25T23:42:08.418Z,20.57
2018-09-25T23:44:34.773Z,20.56
2018-09-25T23:47:01.133Z,20.56
2018-09-25T23:49:27.516Z,20.54
2018-09-25T23:51:53.875Z,20.50
2018-09-25T23:54:20.230Z,20.51
2018-09-25T23:56:46.703Z,20.49
2018-09-25T23:59:13.136Z,20.47
